createdAt,value
2022-09-05T00:00:23.328Z,1.40
2022-09-05T00:03:26.085Z,1.90
2022-09-05T00:06:15.375Z,1.80
2022-09-05T00:09:19.786Z,1.70
2022-09-05T00:12:09.344Z,2.10
2022-09-05T00:15:16.143Z,1.40
2022-09-05T00:20:58.781Z,1.40
2022-09-05T00:24:32.142Z,1.70
2022-09-05T00:25:30.555Z,1.50
2022-09-05T00:28:28.097Z,1.80
2022-09-05T00:31:55.843Z,1.30
2022-09-05T00:34:47.994Z,1.10
2022-09-05T00:37:40.244Z,0.90
2022-09-05T00:40:51.270Z,1.30
2022-09-05T00:43:48.401Z,1.50
2022-09-05T00:46:39.227Z,1.50
2022-09-05T00:49:32.295Z,1.50
2022-09-05T00:52:24.628Z,1.40
2022-09-05T00:55:35.849Z,1.60
2022-09-05T00:59:00.934Z,1.50
2022-09-05T01:02:14.618Z,2.40
2022-09-05T01:05:45.649Z,1.30
2022-09-05T01:09:14.265Z,1.60
2022-09-05T01:12:15.420Z,1.60
2022-09-05T01:15:13.780Z,1.60
2022-09-05T01:18:02.620Z,2.30
2022-09-05T01:20:51.374Z,2.10
2022-09-05T01:23:50.090Z,2.50
2022-09-05T01:26:54.786Z,2.10
2022-09-05T01:29:47.049Z,2.70
2022-09-05T01:33:05.933Z,1.60
2022-09-05T01:36:18.790Z,1.60
2022-09-05T01:40:10.954Z,1.60
2022-09-05T01:43:01.506Z,1.90
2022-09-05T01:45:52.230Z,3.70
2022-09-05T01:48:56.950Z,1.40
2022-09-05T01:51:56.514Z,2.10
2022-09-05T01:55:13.165Z,1.70
2022-09-05T01:58:27.574Z,2.40
2022-09-05T02:01:25.099Z,3.00
2022-09-05T02:04:58.049Z,1.80
2022-09-05T02:07:43.902Z,3.00
2022-09-05T02:10:41.434Z,3.10
2022-09-05T02:13:36.676Z,1.60
2022-09-05T02:16:44.885Z,1.70
2022-09-05T02:19:31.997Z,1.80
2022-09-05T02:22:26.084Z,1.80
2022-09-05T02:26:00.708Z,2.20
2022-09-05T02:28:56.313Z,2.90
2022-09-05T02:31:48.485Z,1.90
2022-09-05T02:35:04.736Z,2.50
2022-09-05T02:40:39.021Z,1.70
2022-09-05T02:45:12.663Z,2.30
2022-09-05T02:45:16.330Z,1.90
2022-09-05T02:48:08.388Z,1.70
2022-09-05T02:57:29.657Z,1.90
2022-09-05T02:58:04.908Z,2.70
2022-09-05T02:58:08.931Z,2.70
2022-09-05T03:01:25.785Z,3.60
2022-09-05T03:04:32.250Z,2.10
2022-09-05T03:07:34.067Z,1.50
2022-09-05T03:10:53.512Z,3.00
2022-09-05T03:13:54.514Z,2.20
2022-09-05T03:16:47.483Z,2.60
2022-09-05T03:20:18.680Z,1.60
2022-09-05T03:23:58.412Z,1.90
2022-09-05T03:27:12.113Z,1.90
2022-09-05T03:30:18.966Z,1.80
2022-09-05T03:33:26.284Z,2.50
2022-09-05T03:36:12.117Z,1.90
2022-09-05T03:39:31.199Z,1.70
2022-09-05T03:42:50.839Z,1.70
2022-09-05T03:45:38.858Z,2.40
2022-09-05T03:48:44.852Z,2.20
2022-09-05T03:57:07.182Z,2.30
2022-09-05T03:57:28.501Z,1.90
2022-09-05T03:58:16.204Z,2.10
2022-09-05T04:03:02.595Z,2.10
2022-09-05T04:08:20.794Z,4.20
2022-09-05T04:08:59.263Z,4.50
2022-09-05T04:11:49.439Z,2.70
2022-09-05T04:14:55.591Z,4.00
2022-09-05T04:17:48.988Z,2.70
2022-09-05T04:21:07.149Z,2.90
2022-09-05T04:23:58.827Z,2.00
2022-09-05T04:26:57.665Z,2.70
2022-09-05T04:30:38.581Z,2.00
2022-09-05T04:33:40.336Z,2.00
2022-09-05T04:36:35.545Z,2.20
2022-09-05T04:39:21.390Z,2.80
2022-09-05T04:42:36.614Z,2.30
2022-09-05T04:45:24.555Z,3.70
2022-09-05T04:48:14.428Z,2.20
2022-09-05T04:51:22.691Z,2.50
2022-09-05T04:54:23.487Z,2.40
2022-09-05T04:57:47.149Z,3.20
2022-09-05T05:05:58.220Z,1.80
2022-09-05T05:06:18.135Z,2.10
2022-09-05T05:07:33.342Z,3.10
2022-09-05T05:12:37.784Z,2.80
2022-09-05T05:18:08.633Z,2.60
2022-09-05T05:18:14.681Z,2.30
2022-09-05T05:20:50.311Z,2.60
2022-09-05T05:23:41.201Z,3.40
2022-09-05T05:26:56.717Z,2.10
2022-09-05T05:30:02.140Z,4.10
2022-09-05T05:32:52.699Z,2.10
2022-09-05T05:35:41.968Z,2.00
2022-09-05T05:39:10.260Z,2.60
2022-09-05T05:41:58.253Z,3.50
2022-09-05T05:44:50.561Z,2.40
2022-09-05T05:47:46.361Z,2.60
2022-09-05T05:51:03.490Z,3.10
2022-09-05T05:54:20.114Z,2.30
2022-09-05T05:57:49.801Z,1.80
2022-09-05T06:00:38.925Z,1.70
2022-09-05T06:03:54.901Z,2.80
2022-09-05T06:07:10.648Z,2.00
2022-09-05T06:14:48.730Z,1.80
2022-09-05T06:14:57.620Z,1.90
2022-09-05T06:16:58.942Z,2.00
2022-09-05T06:22:06.137Z,2.10
2022-09-05T06:23:46.548Z,1.60
2022-09-05T06:27:07.013Z,3.90
2022-09-05T06:29:57.144Z,2.30
2022-09-05T06:32:58.645Z,1.90
2022-09-05T06:40:35.600Z,2.50
2022-09-05T06:43:44.716Z,1.60
2022-09-05T06:46:54.723Z,1.80
2022-09-05T06:49:48.794Z,1.80
2022-09-05T06:52:53.347Z,3.50
2022-09-05T06:56:07.197Z,1.90
2022-09-05T06:59:34.562Z,2.90
2022-09-05T07:02:50.015Z,2.70
2022-09-05T07:05:39.657Z,3.70
2022-09-05T07:08:54.448Z,2.00
2022-09-05T07:11:43.829Z,2.20
2022-09-05T07:14:36.316Z,1.70
2022-09-05T07:18:09.549Z,3.40
2022-09-05T07:21:12.312Z,2.00
2022-09-05T07:24:11.153Z,2.30
2022-09-05T07:27:00.586Z,2.50
2022-09-05T07:29:53.269Z,1.70
2022-09-05T07:32:58.595Z,2.50
2022-09-05T07:35:46.329Z,1.40
2022-09-05T07:38:48.999Z,1.80
2022-09-05T07:41:45.122Z,1.50
2022-09-05T07:44:35.103Z,3.70
2022-09-05T07:52:10.710Z,1.80
2022-09-05T07:56:55.404Z,11.30
2022-09-05T07:57:30.686Z,1.50
2022-09-05T08:00:29.714Z,1.80
2022-09-05T08:03:16.262Z,1.80
2022-09-05T08:06:11.785Z,3.30
2022-09-05T08:10:05.390Z,1.30
2022-09-05T08:13:24.479Z,1.60
2022-09-05T08:16:21.289Z,1.10
2022-09-05T08:19:40.266Z,1.20
2022-09-05T08:22:31.273Z,2.50
2022-09-05T08:25:24.210Z,1.50
2022-09-05T08:28:22.547Z,1.30
2022-09-05T08:31:19.711Z,1.10
2022-09-05T08:34:12.943Z,1.60
2022-09-05T08:37:00.969Z,1.10
2022-09-05T08:39:50.709Z,1.00
2022-09-05T08:44:41.840Z,0.90
2022-09-05T08:48:14.490Z,2.20
2022-09-05T08:50:56.219Z,0.80
2022-09-05T08:53:51.054Z,2.40
2022-09-05T08:56:54.867Z,0.90
2022-09-05T09:00:18.861Z,1.60
2022-09-05T09:07:51.392Z,0.80
2022-09-05T09:11:08.286Z,3.80
2022-09-05T09:15:05.189Z,1.90
2022-09-05T09:17:56.821Z,1.10
2022-09-05T09:21:49.619Z,1.20
2022-09-05T09:25:15.194Z,1.30
2022-09-05T09:28:48.959Z,1.20
2022-09-05T09:31:37.812Z,1.20
2022-09-05T09:34:49.268Z,2.20
2022-09-05T10:00:14.211Z,0.70
2022-09-05T10:06:43.773Z,1.30
2022-09-05T10:10:48.840Z,0.50
2022-09-05T10:10:59.752Z,1.10
2022-09-05T10:13:18.468Z,1.00
2022-09-05T10:16:07.389Z,0.60
2022-09-05T10:19:01.070Z,0.50
2022-09-05T10:21:47.194Z,1.60
2022-09-05T10:24:39.582Z,0.60
2022-09-05T10:27:44.452Z,0.60
2022-09-05T10:31:57.147Z,0.50
2022-09-05T10:35:15.252Z,1.00
2022-09-05T10:37:14.131Z,2.80
2022-09-05T10:40:06.185Z,1.30
2022-09-05T10:43:00.092Z,1.10
2022-09-05T10:45:56.252Z,0.50
2022-09-05T10:48:54.656Z,0.60
2022-09-05T10:51:54.620Z,1.10
2022-09-05T10:55:14.286Z,0.60
2022-09-05T11:02:15.595Z,1.10
2022-09-05T11:02:20.570Z,1.00
2022-09-05T11:05:25.651Z,1.30
2022-09-05T11:08:27.147Z,0.60
2022-09-05T11:11:28.490Z,0.70
2022-09-05T11:14:32.560Z,1.40
2022-09-05T11:17:33.307Z,0.80
2022-09-05T11:20:26.142Z,1.90
2022-09-05T11:23:47.097Z,1.60
2022-09-05T11:27:23.714Z,0.70
2022-09-05T11:30:29.268Z,0.70
2022-09-05T11:39:48.632Z,0.90
2022-09-05T11:39:55.070Z,0.50
2022-09-05T11:40:31.533Z,2.10
2022-09-05T11:44:24.545Z,1.50
2022-09-05T11:47:33.200Z,2.30
2022-09-05T11:50:42.799Z,0.60
2022-09-05T11:53:37.753Z,0.40
2022-09-05T11:56:34.110Z,2.20
2022-09-05T11:59:45.031Z,1.60
2022-09-05T12:03:01.461Z,1.50
2022-09-05T12:06:09.667Z,1.80
2022-09-05T12:09:18.470Z,0.60
2022-09-05T12:12:39.131Z,2.40
2022-09-05T12:15:34.527Z,1.00
2022-09-05T12:18:45.916Z,1.80
2022-09-05T12:21:53.726Z,0.60
2022-09-05T12:25:17.164Z,0.50
2022-09-05T12:28:48.385Z,2.00
2022-09-05T12:32:32.236Z,1.10
2022-09-05T12:36:12.859Z,2.30
2022-09-05T12:40:04.645Z,2.90
2022-09-05T12:42:25.776Z,1.60
2022-09-05T12:45:37.074Z,2.80
2022-09-05T12:48:39.840Z,2.60
2022-09-05T12:51:45.023Z,0.50
2022-09-05T12:54:57.019Z,0.50
2022-09-05T13:02:55.058Z,0.50
2022-09-05T13:03:12.714Z,0.40
2022-09-05T13:04:25.046Z,0.60
2022-09-05T13:07:24.138Z,0.60
2022-09-05T13:13:24.189Z,1.40
2022-09-05T13:14:55.288Z,2.10
2022-09-05T13:16:51.270Z,2.30
2022-09-05T13:19:51.642Z,0.50
2022-09-05T13:22:48.923Z,1.60
2022-09-05T13:25:37.442Z,2.90
2022-09-05T13:28:49.116Z,2.80
2022-09-05T13:37:56.410Z,0.70
2022-09-05T13:38:04.152Z,1.20
2022-09-05T13:38:47.797Z,0.40
2022-09-05T13:41:29.284Z,1.60
2022-09-05T13:44:26.707Z,3.00
2022-09-05T13:47:30.332Z,5.30
2022-09-05T13:50:23.450Z,2.00
2022-09-05T13:53:26.902Z,4.10
2022-09-05T13:56:23.363Z,1.10
2022-09-05T13:59:15.369Z,0.60
2022-09-05T14:02:25.735Z,2.00
2022-09-05T14:05:37.661Z,4.40
2022-09-05T14:08:34.099Z,0.80
2022-09-05T14:11:48.419Z,2.50
2022-09-05T14:17:59.047Z,2.60
2022-09-05T14:21:16.950Z,4.40
2022-09-05T14:24:05.925Z,0.50
2022-09-05T14:26:59.379Z,0.80
2022-09-05T14:37:36.554Z,2.70
2022-09-05T14:37:40.950Z,1.40
2022-09-05T14:38:44.544Z,0.90
2022-09-05T14:41:35.503Z,1.20
2022-09-05T14:44:25.641Z,3.00
2022-09-05T14:47:07.127Z,1.10
2022-09-05T14:50:17.787Z,1.10
2022-09-05T14:57:18.933Z,0.80
2022-09-05T15:02:53.202Z,2.10
2022-09-05T15:02:54.798Z,3.60
2022-09-05T15:06:39.372Z,1.70
2022-09-05T15:11:25.399Z,0.80
2022-09-05T15:12:46.029Z,2.00
2022-09-05T15:20:05.469Z,2.60
2022-09-05T15:22:38.914Z,2.30
2022-09-05T15:25:48.922Z,5.40
2022-09-05T15:28:51.040Z,1.20
2022-09-05T15:31:44.401Z,0.50
2022-09-05T15:34:29.441Z,0.50
2022-09-05T15:37:15.330Z,2.10
2022-09-05T15:48:18.255Z,2.30
2022-09-05T15:51:18.133Z,53.10
2022-09-05T15:54:07.026Z,37.00
2022-09-05T15:57:01.453Z,24.70
2022-09-05T16:03:30.130Z,14.70
2022-09-05T16:10:43.750Z,28.40
2022-09-05T16:14:27.551Z,13.50
2022-09-05T16:23:31.184Z,15.50
2022-09-05T16:24:38.640Z,21.90
2022-09-05T16:32:00.966Z,12.60
2022-09-05T16:34:47.401Z,12.40
2022-09-05T16:37:24.460Z,10.80
2022-09-05T16:41:00.211Z,23.40
2022-09-05T16:43:45.076Z,24.20
2022-09-05T16:46:38.811Z,30.60
2022-09-05T16:52:53.698Z,19.80
2022-09-05T16:56:58.760Z,24.00
2022-09-05T16:57:51.262Z,30.20
2022-09-05T17:00:20.100Z,37.50
2022-09-05T17:13:30.834Z,31.20
2022-09-05T17:15:22.088Z,33.80
2022-09-05T17:19:21.594Z,28.60
2022-09-05T17:26:48.890Z,29.50
2022-09-05T17:29:26.019Z,53.80
2022-09-05T17:29:42.080Z,38.70
2022-09-05T17:31:55.656Z,30.00
2022-09-05T17:35:17.074Z,78.90
2022-09-05T17:38:12.150Z,26.20
2022-09-05T17:41:36.231Z,34.40
2022-09-05T17:44:42.456Z,35.00
2022-09-05T17:47:36.404Z,32.80
2022-09-05T17:50:33.313Z,35.60
2022-09-05T17:56:45.989Z,32.80
2022-09-05T17:59:26.068Z,29.90
2022-09-05T18:02:43.762Z,27.30
2022-09-05T18:07:48.274Z,21.80
2022-09-05T18:09:38.751Z,17.10
2022-09-05T18:21:21.042Z,46.10
2022-09-05T18:24:37.320Z,36.10
2022-09-05T18:28:04.926Z,38.60
2022-09-05T18:35:42.496Z,30.90
2022-09-05T18:38:29.710Z,9.60
2022-09-05T18:42:33.682Z,46.80
2022-09-05T18:45:28.184Z,41.20
2022-09-05T18:49:48.906Z,25.00
2022-09-05T18:53:09.290Z,12.30
2022-09-05T18:56:13.054Z,7.90
2022-09-05T18:58:38.359Z,21.20
2022-09-05T19:01:36.860Z,49.10
2022-09-05T19:04:39.090Z,12.50
2022-09-05T19:08:04.765Z,23.60
2022-09-05T19:10:36.860Z,21.20
2022-09-05T19:13:31.662Z,25.60
2022-09-05T19:16:48.144Z,15.20
2022-09-05T19:19:26.738Z,12.30
2022-09-05T19:22:39.509Z,18.60
2022-09-05T19:25:32.740Z,17.00
2022-09-05T19:31:55.681Z,18.20
2022-09-05T19:34:06.435Z,25.10
2022-09-05T19:38:17.948Z,20.50
2022-09-05T19:47:27.365Z,21.70
2022-09-05T19:47:56.600Z,21.90
2022-09-05T20:54:20.747Z,2.30
2022-09-05T20:56:28.183Z,1.00
2022-09-05T20:59:01.563Z,1.90
2022-09-05T21:01:32.850Z,2.00
2022-09-05T21:04:03.945Z,3.30
2022-09-05T21:06:34.417Z,1.50
2022-09-05T21:09:25.336Z,3.00
2022-09-05T21:11:56.632Z,0.80
2022-09-05T21:14:28.450Z,2.90
2022-09-05T21:17:12.042Z,1.40
2022-09-05T21:19:54.212Z,2.80
2022-09-05T21:22:31.925Z,2.80
2022-09-05T21:25:15.469Z,2.40
2022-09-05T21:27:56.211Z,1.50
2022-09-05T21:30:38.292Z,1.20
2022-09-05T21:33:45.762Z,1.50
2022-09-05T21:36:15.761Z,1.00
2022-09-05T21:38:44.456Z,2.10
2022-09-05T21:41:16.467Z,2.10
2022-09-05T21:47:35.295Z,1.50
2022-09-05T21:47:43.877Z,3.00
2022-09-05T21:49:25.796Z,1.80
2022-09-05T21:51:54.270Z,3.80
2022-09-05T21:59:16.118Z,1.50
2022-09-05T21:59:24.054Z,1.30
2022-09-05T22:00:25.397Z,2.20
2022-09-05T22:02:53.851Z,1.30
2022-09-05T22:05:25.587Z,1.00
2022-09-05T22:07:54.841Z,1.40
2022-09-05T22:10:23.459Z,1.30
2022-09-05T22:13:12.516Z,1.10
2022-09-05T22:15:40.822Z,1.00
2022-09-05T22:18:16.780Z,1.30
2022-09-05T22:20:51.850Z,1.80
2022-09-05T22:23:40.710Z,1.50
2022-09-05T22:26:09.535Z,1.10
2022-09-05T22:28:49.020Z,1.00
2022-09-05T22:31:19.452Z,1.20
2022-09-05T22:33:51.013Z,1.40
2022-09-05T22:36:20.217Z,1.30
2022-09-05T22:38:48.562Z,1.40
2022-09-05T22:41:17.179Z,1.00
2022-09-05T22:43:47.023Z,1.80
2022-09-05T22:46:15.932Z,1.00
2022-09-05T22:48:44.248Z,1.20
2022-09-05T22:51:12.859Z,1.60
2022-09-05T22:53:41.118Z,1.00
2022-09-05T22:56:09.961Z,0.90
2022-09-05T22:58:40.677Z,1.10
2022-09-05T23:01:10.310Z,1.00
2022-09-05T23:06:09.507Z,1.20
2022-09-05T23:08:41.982Z,0.80
2022-09-05T23:11:16.508Z,0.80
2022-09-05T23:13:45.065Z,0.80
2022-09-05T23:16:13.495Z,0.80
2022-09-05T23:18:42.021Z,1.00
2022-09-05T23:21:13.062Z,1.60
2022-09-05T23:23:42.015Z,0.70
2022-09-05T23:26:12.641Z,1.00
2022-09-05T23:28:43.458Z,0.80
2022-09-05T23:31:13.203Z,0.60
2022-09-05T23:33:42.525Z,0.90
2022-09-05T23:36:16.012Z,0.90
2022-09-05T23:38:44.610Z,0.70
2022-09-05T23:41:15.215Z,1.30
2022-09-05T23:43:43.808Z,1.00
2022-09-05T23:46:12.334Z,0.70
2022-09-05T23:48:40.918Z,1.30
2022-09-05T23:51:11.878Z,2.40
2022-09-05T23:53:40.830Z,0.70
2022-09-05T23:56:10.482Z,0.60
2022-09-05T23:58:39.452Z,0.90
